createdAt,value
2023-03-18T00:02:27.504Z,8.73
2023-03-18T00:04:55.522Z,8.27
2023-03-18T00:07:23.352Z,8.13
2023-03-18T00:09:52.827Z,5.68
2023-03-18T00:12:21.197Z,8.98
2023-03-18T00:14:49.018Z,9.68
2023-03-18T00:17:17.015Z,7.72
2023-03-18T00:19:46.403Z,6.10
2023-03-18T00:22:14.407Z,9.05
2023-03-18T00:24:42.369Z,14.20
2023-03-18T00:27:10.551Z,14.15
2023-03-18T00:29:39.820Z,6.13
2023-03-18T00:32:09.276Z,5.75
2023-03-18T00:34:37.020Z,9.25
2023-03-18T00:37:06.141Z,6.95
2023-03-18T00:39:34.303Z,8.15
2023-03-18T00:42:10.580Z,14.95
2023-03-18T00:44:38.372Z,11.10
2023-03-18T00:47:06.567Z,7.95
2023-03-18T00:49:34.818Z,9.40
2023-03-18T00:52:02.832Z,9.32
2023-03-18T00:54:32.019Z,9.65
2023-03-18T00:56:59.994Z,5.53
2023-03-18T00:59:28.122Z,10.65
2023-03-18T01:01:55.909Z,5.35
2023-03-18T01:04:23.729Z,9.27
2023-03-18T01:06:52.029Z,8.75
2023-03-18T01:09:20.001Z,6.05
2023-03-18T01:11:49.064Z,7.28
2023-03-18T01:14:16.921Z,5.80
2023-03-18T01:16:44.775Z,6.30
2023-03-18T01:19:12.813Z,7.60
2023-03-18T01:21:40.877Z,7.30
2023-03-18T01:24:10.595Z,6.03
2023-03-18T01:26:38.366Z,6.07
2023-03-18T01:29:08.227Z,5.70
2023-03-18T01:31:36.002Z,7.55
2023-03-18T01:34:03.969Z,9.18
2023-03-18T01:36:31.945Z,4.57
2023-03-18T01:38:59.694Z,7.75
2023-03-18T01:41:27.880Z,7.68
2023-03-18T01:43:55.677Z,4.82
2023-03-18T01:46:36.045Z,5.30
2023-03-18T01:49:05.787Z,5.03
2023-03-18T01:51:33.587Z,6.57
2023-03-18T01:54:03.434Z,6.20
2023-03-18T01:56:31.555Z,7.70
2023-03-18T01:59:01.018Z,4.82
2023-03-18T02:01:33.628Z,5.70
2023-03-18T02:04:03.991Z,7.82
2023-03-18T02:06:33.332Z,11.80
2023-03-18T02:09:01.350Z,5.78
2023-03-18T02:11:29.339Z,4.65
2023-03-18T02:13:57.593Z,8.65
2023-03-18T02:16:27.622Z,6.78
2023-03-18T02:18:56.643Z,5.90
2023-03-18T02:21:32.851Z,8.00
2023-03-18T02:24:05.366Z,5.38
2023-03-18T02:26:38.116Z,3.60
2023-03-18T02:29:09.125Z,6.78
2023-03-18T02:31:37.985Z,5.75
2023-03-18T02:34:09.161Z,7.82
2023-03-18T02:36:37.481Z,4.82
2023-03-18T02:39:06.146Z,10.85
2023-03-18T02:41:35.417Z,6.57
2023-03-18T02:44:03.272Z,8.50
2023-03-18T02:46:35.655Z,6.45
2023-03-18T02:49:06.844Z,7.68
2023-03-18T02:51:35.577Z,4.63
2023-03-18T02:54:05.527Z,6.53
2023-03-18T02:56:33.310Z,7.28
2023-03-18T02:59:01.376Z,5.45
2023-03-18T03:01:30.005Z,5.07
2023-03-18T03:03:59.315Z,5.75
2023-03-18T03:06:27.509Z,4.22
2023-03-18T03:08:55.540Z,11.00
2023-03-18T03:11:24.056Z,5.72
2023-03-18T03:13:52.213Z,9.90
2023-03-18T03:16:20.334Z,5.15
2023-03-18T03:18:48.533Z,6.38
2023-03-18T03:21:17.988Z,6.82
2023-03-18T03:23:46.430Z,4.53
2023-03-18T03:26:14.560Z,6.60
2023-03-18T03:28:42.734Z,7.80
2023-03-18T03:31:11.177Z,7.85
2023-03-18T03:33:41.353Z,4.57
2023-03-18T03:36:10.100Z,5.60
2023-03-18T03:38:39.203Z,7.07
2023-03-18T03:41:08.808Z,8.15
2023-03-18T03:43:37.040Z,5.68
2023-03-18T03:46:04.989Z,4.78
2023-03-18T03:48:33.035Z,5.53
2023-03-18T03:51:00.946Z,6.38
2023-03-18T03:53:29.304Z,6.85
2023-03-18T03:55:59.291Z,5.25
2023-03-18T03:58:27.577Z,8.05
2023-03-18T04:00:55.873Z,6.57
2023-03-18T04:03:23.989Z,6.53
2023-03-18T04:05:51.800Z,6.18
2023-03-18T04:08:21.741Z,5.22
2023-03-18T04:10:49.559Z,6.45
2023-03-18T04:13:18.885Z,5.30
2023-03-18T04:15:47.848Z,4.97
2023-03-18T04:18:17.217Z,7.65
2023-03-18T04:20:46.253Z,5.53
2023-03-18T04:23:14.416Z,4.18
2023-03-18T04:25:42.799Z,4.15
2023-03-18T04:28:10.878Z,5.85
2023-03-18T04:30:40.029Z,6.05
2023-03-18T04:33:08.168Z,3.67
2023-03-18T04:35:36.693Z,7.97
2023-03-18T04:38:04.766Z,6.50
2023-03-18T04:40:32.892Z,6.70
2023-03-18T04:43:01.205Z,6.60
2023-03-18T04:45:29.664Z,5.18
2023-03-18T04:47:59.090Z,5.50
2023-03-18T04:50:27.855Z,6.57
2023-03-18T04:52:56.102Z,5.70
2023-03-18T04:55:23.991Z,7.18
2023-03-18T04:57:52.073Z,4.97
2023-03-18T05:00:21.944Z,5.22
2023-03-18T05:02:50.004Z,11.70
2023-03-18T05:05:19.478Z,6.93
2023-03-18T05:07:47.235Z,6.35
2023-03-18T05:10:16.939Z,8.30
2023-03-18T05:12:45.141Z,5.68
2023-03-18T05:15:14.530Z,6.40
2023-03-18T05:17:42.379Z,6.47
2023-03-18T05:20:11.521Z,6.55
2023-03-18T05:22:40.989Z,6.07
2023-03-18T05:25:11.091Z,10.80
2023-03-18T05:27:39.192Z,7.60
2023-03-18T05:30:07.631Z,4.93
2023-03-18T05:32:35.708Z,7.38
2023-03-18T05:35:03.808Z,7.30
2023-03-18T05:37:31.626Z,7.03
2023-03-18T05:40:01.509Z,5.47
2023-03-18T05:42:29.273Z,6.10
2023-03-18T05:44:57.990Z,5.35
2023-03-18T05:47:25.961Z,4.55
2023-03-18T05:49:53.746Z,6.45
2023-03-18T05:52:21.667Z,5.90
2023-03-18T05:54:50.208Z,6.75
2023-03-18T05:57:20.102Z,5.95
2023-03-18T05:59:48.126Z,6.20
2023-03-18T06:02:16.150Z,4.25
2023-03-18T06:04:44.233Z,6.95
2023-03-18T06:07:13.512Z,4.60
2023-03-18T06:09:41.262Z,9.48
2023-03-18T06:12:09.310Z,6.32
2023-03-18T06:14:38.674Z,3.92
2023-03-18T06:17:06.504Z,4.72
2023-03-18T06:19:34.312Z,5.22
2023-03-18T06:22:03.059Z,6.68
2023-03-18T06:24:30.785Z,4.90
2023-03-18T06:26:58.850Z,5.88
2023-03-18T06:29:26.752Z,7.25
2023-03-18T06:31:55.964Z,7.43
2023-03-18T06:34:23.992Z,6.80
2023-03-18T06:36:52.332Z,5.18
2023-03-18T06:39:20.142Z,7.25
2023-03-18T06:41:47.907Z,6.78
2023-03-18T06:44:15.635Z,7.13
2023-03-18T06:46:44.117Z,4.90
2023-03-18T06:49:14.926Z,7.95
2023-03-18T06:51:43.604Z,6.85
2023-03-18T06:54:11.500Z,20.27
2023-03-18T06:56:40.049Z,5.65
2023-03-18T06:59:08.736Z,5.72
2023-03-18T07:01:37.284Z,10.40
2023-03-18T07:04:07.212Z,3.83
2023-03-18T07:06:37.122Z,11.10
2023-03-18T07:09:05.206Z,8.80
2023-03-18T07:11:33.012Z,7.50
2023-03-18T07:14:02.166Z,5.10
2023-03-18T07:16:31.028Z,11.85
2023-03-18T07:18:59.284Z,6.75
2023-03-18T07:21:27.962Z,6.43
2023-03-18T07:23:57.128Z,7.43
2023-03-18T07:26:25.089Z,11.23
2023-03-18T07:28:53.088Z,8.55
2023-03-18T07:31:21.158Z,5.03
2023-03-18T07:33:48.942Z,4.38
2023-03-18T07:36:17.004Z,8.15
2023-03-18T07:38:44.789Z,7.28
2023-03-18T07:41:13.930Z,6.95
2023-03-18T07:43:41.674Z,7.20
2023-03-18T07:46:09.917Z,5.22
2023-03-18T07:48:37.725Z,7.05
2023-03-18T07:51:05.744Z,4.93
2023-03-18T07:53:33.771Z,7.57
2023-03-18T07:56:02.077Z,10.20
2023-03-18T07:58:31.249Z,15.25
2023-03-18T08:00:59.822Z,9.27
2023-03-18T08:03:27.975Z,5.93
2023-03-18T08:05:56.431Z,9.90
2023-03-18T08:08:24.996Z,4.50
2023-03-18T08:10:54.370Z,6.78
2023-03-18T08:13:22.109Z,6.50
2023-03-18T08:15:51.341Z,6.00
2023-03-18T08:18:19.398Z,7.13
2023-03-18T08:20:48.414Z,5.00
2023-03-18T08:23:16.193Z,7.07
2023-03-18T08:25:44.422Z,4.90
2023-03-18T08:28:12.167Z,8.90
2023-03-18T08:30:40.324Z,9.90
2023-03-18T08:33:09.933Z,5.70
2023-03-18T08:35:40.449Z,5.85
2023-03-18T08:38:08.601Z,4.68
2023-03-18T08:40:36.361Z,5.40
2023-03-18T08:43:04.235Z,6.47
2023-03-18T08:45:34.501Z,5.47
2023-03-18T08:48:02.745Z,4.90
2023-03-18T08:50:32.041Z,8.85
2023-03-18T08:53:01.593Z,6.05
2023-03-18T08:55:34.499Z,5.32
2023-03-18T08:58:04.383Z,8.00
2023-03-18T09:00:32.661Z,4.68
2023-03-18T09:03:00.967Z,7.53
2023-03-18T09:05:28.953Z,5.45
2023-03-18T09:07:58.262Z,7.05
2023-03-18T09:10:26.134Z,5.07
2023-03-18T09:12:54.029Z,5.38
2023-03-18T09:15:22.497Z,4.22
2023-03-18T09:18:07.922Z,9.18
2023-03-18T09:20:38.956Z,4.07
2023-03-18T09:23:08.856Z,5.40
2023-03-18T09:25:36.699Z,4.75
2023-03-18T09:28:04.560Z,5.88
2023-03-18T09:30:33.904Z,7.68
2023-03-18T09:35:44.939Z,6.75
2023-03-18T09:38:15.456Z,3.65
2023-03-18T09:40:46.970Z,6.78
2023-03-18T09:43:18.093Z,7.78
2023-03-18T09:45:55.957Z,5.88
2023-03-18T09:48:43.429Z,6.70
2023-03-18T09:51:18.816Z,6.20
2023-03-18T09:53:51.611Z,6.53
2023-03-18T09:56:22.919Z,5.07
2023-03-18T09:58:54.806Z,7.53
2023-03-18T10:01:24.048Z,10.55
2023-03-18T10:03:54.723Z,8.10
2023-03-18T10:06:22.984Z,5.68
2023-03-18T10:08:55.590Z,7.10
2023-03-18T10:11:26.526Z,4.97
2023-03-18T10:13:58.546Z,4.55
2023-03-18T10:16:29.291Z,6.28
2023-03-18T10:18:57.150Z,8.02
2023-03-18T10:21:28.408Z,9.90
2023-03-18T10:24:00.679Z,5.82
2023-03-18T10:26:31.161Z,7.93
2023-03-18T10:29:04.380Z,7.35
2023-03-18T10:31:37.374Z,9.70
2023-03-18T10:34:09.555Z,6.00
2023-03-18T10:36:40.192Z,6.53
2023-03-18T10:39:14.374Z,4.50
2023-03-18T10:41:43.539Z,5.97
2023-03-18T10:44:17.756Z,5.70
2023-03-18T10:46:47.573Z,6.25
2023-03-18T10:49:17.637Z,5.00
2023-03-18T10:51:50.148Z,8.38
2023-03-18T10:54:22.477Z,4.90
2023-03-18T10:56:50.863Z,7.40
2023-03-18T10:59:19.958Z,5.72
2023-03-18T11:01:49.869Z,5.03
2023-03-18T11:04:19.253Z,7.18
2023-03-18T11:06:48.312Z,10.68
2023-03-18T11:09:17.857Z,6.05
2023-03-18T11:11:48.810Z,4.07
2023-03-18T11:14:18.262Z,5.88
2023-03-18T11:16:49.563Z,3.65
2023-03-18T11:19:27.600Z,6.68
2023-03-18T11:22:04.700Z,4.30
2023-03-18T11:24:42.419Z,5.72
2023-03-18T11:27:25.873Z,7.65
2023-03-18T11:29:55.984Z,3.83
2023-03-18T11:32:25.031Z,4.45
2023-03-18T11:34:55.694Z,6.80
2023-03-18T11:37:27.211Z,6.00
2023-03-18T11:40:07.012Z,3.22
2023-03-18T11:42:40.471Z,4.10
2023-03-18T11:45:20.248Z,3.05
2023-03-18T11:47:48.501Z,5.72
2023-03-18T11:50:20.052Z,5.53
2023-03-18T11:52:52.118Z,6.68
2023-03-18T11:55:27.199Z,6.68
2023-03-18T11:58:13.525Z,10.18
2023-03-18T12:00:45.855Z,6.60
2023-03-18T12:03:35.783Z,6.93
2023-03-18T12:06:11.167Z,2.97
2023-03-18T12:08:48.636Z,4.10
2023-03-18T12:11:20.016Z,6.25
2023-03-18T12:13:53.354Z,4.93
2023-03-18T12:16:26.596Z,7.70
2023-03-18T12:19:01.648Z,3.38
2023-03-18T12:21:38.721Z,2.72
2023-03-18T12:24:16.207Z,5.65
2023-03-18T12:26:48.052Z,6.78
2023-03-18T12:29:26.664Z,4.45
2023-03-18T12:32:00.696Z,3.88
2023-03-18T12:34:35.291Z,2.42
2023-03-18T12:37:10.639Z,2.15
2023-03-18T12:39:45.866Z,3.25
2023-03-18T12:42:17.885Z,4.90
2023-03-18T12:44:57.685Z,6.22
2023-03-18T12:47:30.625Z,7.60
2023-03-18T12:50:01.561Z,3.97
2023-03-18T12:52:32.291Z,6.22
2023-03-18T12:55:02.763Z,4.55
2023-03-18T12:57:37.883Z,3.38
2023-03-18T13:00:10.461Z,4.43
2023-03-18T13:02:45.189Z,7.25
2023-03-18T13:05:21.205Z,3.05
2023-03-18T13:07:52.574Z,5.05
2023-03-18T13:10:23.394Z,7.35
2023-03-18T13:12:53.125Z,4.88
2023-03-18T13:15:24.607Z,4.13
2023-03-18T13:17:56.521Z,4.70
2023-03-18T13:20:25.701Z,4.40
2023-03-18T13:23:01.925Z,3.35
2023-03-18T13:25:35.416Z,6.53
2023-03-18T13:28:11.232Z,2.42
2023-03-18T13:30:45.304Z,5.50
2023-03-18T13:33:22.361Z,4.80
2023-03-18T13:36:05.490Z,9.90
2023-03-18T13:38:39.331Z,3.30
2023-03-18T13:41:18.755Z,4.40
2023-03-18T13:43:49.654Z,4.80
2023-03-18T13:46:19.303Z,3.22
2023-03-18T13:48:49.424Z,2.45
2023-03-18T13:51:21.870Z,4.05
2023-03-18T13:53:50.709Z,5.25
2023-03-18T13:56:27.852Z,3.50
2023-03-18T13:58:55.635Z,3.60
2023-03-18T14:01:29.217Z,3.35
2023-03-18T14:04:00.891Z,5.10
2023-03-18T14:06:47.353Z,4.07
2023-03-18T14:09:32.386Z,3.22
2023-03-18T14:12:04.095Z,4.78
2023-03-18T14:15:06.040Z,4.90
2023-03-18T14:17:42.825Z,6.50
2023-03-18T14:20:23.769Z,4.22
2023-03-18T14:22:52.760Z,6.57
2023-03-18T14:25:23.550Z,3.13
2023-03-18T14:27:53.777Z,2.95
2023-03-18T14:30:40.248Z,4.50
2023-03-18T14:33:31.152Z,3.40
2023-03-18T14:36:01.254Z,5.35
2023-03-18T14:38:32.114Z,4.93
2023-03-18T14:41:01.294Z,2.97
2023-03-18T14:43:31.313Z,4.15
2023-03-18T14:46:00.395Z,3.58
2023-03-18T14:48:29.890Z,3.85
2023-03-18T14:50:59.541Z,7.45
2023-03-18T14:53:30.498Z,3.13
2023-03-18T14:55:58.888Z,4.85
2023-03-18T14:58:28.388Z,4.53
2023-03-18T15:00:58.427Z,4.57
2023-03-18T15:03:26.772Z,4.68
2023-03-18T15:05:58.294Z,6.20
2023-03-18T15:08:34.493Z,4.90
2023-03-18T15:11:14.244Z,5.60
2023-03-18T15:13:43.198Z,5.72
2023-03-18T15:16:13.734Z,5.72
2023-03-18T15:18:41.743Z,4.55
2023-03-18T15:21:11.015Z,5.47
2023-03-18T15:23:40.560Z,3.00
2023-03-18T15:26:09.985Z,5.32
2023-03-18T15:28:39.150Z,3.42
2023-03-18T15:31:07.619Z,6.45
2023-03-18T15:33:36.088Z,4.78
2023-03-18T15:36:05.854Z,5.07
2023-03-18T15:38:34.974Z,9.40
2023-03-18T15:41:04.283Z,10.23
2023-03-18T15:43:36.163Z,5.95
2023-03-18T15:46:08.687Z,4.88
2023-03-18T15:48:39.163Z,2.88
2023-03-18T15:51:10.028Z,4.32
2023-03-18T15:53:44.000Z,4.53
2023-03-18T15:56:16.259Z,4.68
2023-03-18T15:58:45.369Z,8.02
2023-03-18T16:01:17.123Z,7.50
2023-03-18T16:03:46.575Z,9.60
2023-03-18T16:06:14.883Z,8.15
2023-03-18T16:08:42.864Z,6.82
2023-03-18T16:11:10.985Z,7.97
2023-03-18T16:13:39.543Z,6.85
2023-03-18T16:16:07.587Z,5.97
2023-03-18T16:18:36.898Z,4.55
2023-03-18T16:21:04.801Z,9.93
2023-03-18T16:23:32.570Z,2.88
2023-03-18T16:26:00.349Z,6.53
2023-03-18T16:28:28.496Z,11.90
2023-03-18T16:30:57.665Z,17.67
2023-03-18T16:33:26.021Z,15.23
2023-03-18T16:35:58.562Z,10.20
2023-03-18T16:38:27.266Z,9.15
2023-03-18T16:40:55.672Z,11.05
2023-03-18T16:43:24.553Z,6.82
2023-03-18T16:45:52.581Z,7.47
2023-03-18T16:48:21.360Z,6.82
2023-03-18T16:50:50.045Z,6.25
2023-03-18T16:53:21.165Z,25.20
2023-03-18T16:55:50.018Z,8.15
2023-03-18T16:58:19.896Z,6.97
2023-03-18T17:00:51.197Z,4.07
2023-03-18T17:03:19.965Z,4.05
2023-03-18T17:05:50.194Z,5.28
2023-03-18T17:08:18.141Z,7.15
2023-03-18T17:10:48.168Z,8.45
2023-03-18T17:13:23.125Z,7.20
2023-03-18T17:15:51.594Z,12.27
2023-03-18T17:18:24.333Z,9.60
2023-03-18T17:20:52.385Z,8.00
2023-03-18T17:23:20.973Z,8.18
2023-03-18T17:25:52.194Z,6.10
2023-03-18T17:28:24.116Z,7.93
2023-03-18T17:30:52.179Z,5.85
2023-03-18T17:33:25.530Z,8.05
2023-03-18T17:35:53.700Z,11.70
2023-03-18T17:38:22.221Z,13.80
2023-03-18T17:40:51.571Z,7.05
2023-03-18T17:43:22.193Z,12.88
2023-03-18T17:45:50.096Z,6.70
2023-03-18T17:48:19.921Z,3.97
2023-03-18T17:50:48.386Z,5.75
2023-03-18T17:53:22.300Z,6.90
2023-03-18T17:55:51.653Z,6.55
2023-03-18T17:58:20.383Z,6.57
2023-03-18T18:00:48.875Z,5.95
2023-03-18T18:03:20.630Z,10.55
2023-03-18T18:05:48.486Z,7.85
2023-03-18T18:08:17.641Z,4.82
2023-03-18T18:10:45.845Z,5.43
2023-03-18T18:13:16.788Z,6.63
2023-03-18T18:15:45.926Z,5.30
2023-03-18T18:18:17.581Z,4.50
2023-03-18T18:20:45.661Z,4.47
2023-03-18T18:23:20.754Z,6.90
2023-03-18T18:25:48.573Z,4.82
2023-03-18T18:28:20.451Z,9.32
2023-03-18T18:30:48.315Z,6.53
2023-03-18T18:33:16.313Z,7.05
2023-03-18T18:35:44.926Z,6.18
2023-03-18T18:38:13.318Z,5.57
2023-03-18T18:40:41.142Z,8.07
2023-03-18T18:43:09.083Z,9.23
2023-03-18T18:45:38.319Z,9.70
2023-03-18T18:48:11.371Z,5.13
2023-03-18T18:53:14.781Z,4.28
2023-03-18T18:55:42.528Z,9.18
2023-03-18T18:58:17.657Z,8.70
2023-03-18T19:00:48.581Z,6.45
2023-03-18T19:03:17.016Z,11.75
2023-03-18T19:05:46.268Z,13.65
2023-03-18T19:08:22.525Z,14.05
2023-03-18T19:10:51.669Z,17.83
2023-03-18T19:13:19.504Z,10.50
2023-03-18T19:15:48.757Z,11.70
2023-03-18T19:18:18.742Z,8.88
2023-03-18T19:20:47.247Z,7.47
2023-03-18T19:23:15.824Z,7.75
2023-03-18T19:25:43.964Z,7.43
2023-03-18T19:28:15.727Z,9.95
2023-03-18T19:30:44.613Z,6.85
2023-03-18T19:33:17.949Z,7.53
2023-03-18T19:35:46.122Z,6.97
2023-03-18T19:38:16.261Z,9.50
2023-03-18T19:40:44.037Z,9.77
2023-03-18T19:43:16.022Z,7.35
2023-03-18T19:45:44.505Z,11.80
2023-03-18T19:48:16.084Z,9.05
2023-03-18T19:50:45.730Z,7.35
2023-03-18T19:53:14.127Z,11.45
2023-03-18T19:55:42.314Z,10.82
2023-03-18T19:58:17.390Z,12.13
2023-03-18T20:00:47.461Z,26.77
2023-03-18T20:03:17.305Z,27.02
2023-03-18T20:05:46.733Z,13.77
2023-03-18T20:08:14.525Z,10.77
2023-03-18T20:10:42.753Z,14.38
2023-03-18T20:13:14.839Z,9.27
2023-03-18T20:15:42.923Z,12.82
2023-03-18T20:18:15.161Z,8.68
2023-03-18T20:20:48.975Z,12.40
2023-03-18T20:23:20.622Z,7.88
2023-03-18T20:25:51.455Z,11.32
2023-03-18T20:28:20.781Z,8.55
2023-03-18T20:30:51.002Z,8.63
2023-03-18T20:33:18.973Z,11.32
2023-03-18T20:35:50.131Z,15.23
2023-03-18T20:38:19.707Z,17.25
2023-03-18T20:40:48.665Z,14.73
2023-03-18T20:43:17.030Z,11.48
2023-03-18T20:45:44.962Z,10.35
2023-03-18T20:48:13.338Z,12.10
2023-03-18T20:50:41.234Z,13.98
2023-03-18T20:53:15.265Z,10.02
2023-03-18T20:55:43.475Z,10.13
2023-03-18T20:58:14.436Z,9.57
2023-03-18T21:00:42.209Z,11.23
2023-03-18T21:03:18.922Z,13.25
2023-03-18T21:05:47.451Z,17.73
2023-03-18T21:08:16.556Z,12.00
2023-03-18T21:10:44.659Z,16.25
2023-03-18T21:13:17.317Z,14.25
2023-03-18T21:15:45.290Z,21.20
2023-03-18T21:18:14.291Z,18.95
2023-03-18T21:20:42.254Z,21.77
2023-03-18T21:23:17.979Z,21.35
2023-03-18T21:25:48.159Z,20.67
2023-03-18T21:28:17.256Z,19.40
2023-03-18T21:30:46.621Z,24.98
2023-03-18T21:33:19.688Z,22.73
2023-03-18T21:38:15.480Z,22.25
2023-03-18T21:40:43.364Z,25.00
2023-03-18T21:43:23.778Z,20.35
2023-03-18T21:45:51.842Z,19.52
2023-03-18T21:48:20.018Z,19.08
2023-03-18T21:50:48.007Z,29.00
2023-03-18T21:53:16.607Z,24.05
2023-03-18T21:55:44.789Z,24.55
2023-03-18T21:58:16.059Z,20.10
2023-03-18T22:00:45.594Z,33.17
2023-03-18T22:03:14.403Z,31.77
2023-03-18T22:05:42.279Z,31.27
2023-03-18T22:08:10.445Z,37.08
2023-03-18T22:10:38.208Z,37.00
2023-03-18T22:13:16.496Z,39.55
2023-03-18T22:15:45.986Z,32.35
2023-03-18T22:18:14.838Z,34.33
2023-03-18T22:20:43.495Z,32.67
2023-03-18T22:23:16.530Z,32.25
2023-03-18T22:28:12.876Z,29.67
2023-03-18T22:30:42.112Z,35.50
2023-03-18T22:33:17.915Z,28.38
2023-03-18T22:35:45.881Z,30.02
2023-03-18T22:38:14.663Z,26.30
2023-03-18T22:40:42.917Z,24.33
2023-03-18T22:43:18.677Z,28.63
2023-03-18T22:45:46.731Z,24.13
2023-03-18T22:48:18.230Z,28.77
2023-03-18T22:50:46.167Z,21.23
2023-03-18T22:53:18.755Z,28.45
2023-03-18T22:55:47.285Z,22.35
2023-03-18T22:58:18.428Z,24.60
2023-03-18T23:00:46.496Z,24.77
2023-03-18T23:03:17.829Z,21.50
2023-03-18T23:05:47.168Z,20.13
2023-03-18T23:08:15.240Z,19.40
2023-03-18T23:10:43.786Z,16.17
2023-03-18T23:13:14.092Z,15.15
2023-03-18T23:15:41.826Z,18.35
2023-03-18T23:18:13.041Z,16.40
2023-03-18T23:20:40.818Z,14.43
2023-03-18T23:23:09.964Z,14.75
2023-03-18T23:25:38.344Z,13.77
2023-03-18T23:28:06.624Z,17.95
2023-03-18T23:30:35.162Z,15.02
2023-03-18T23:33:03.204Z,13.32
2023-03-18T23:35:31.398Z,13.70
2023-03-18T23:37:59.419Z,18.63
2023-03-18T23:40:28.540Z,15.25
2023-03-18T23:42:56.650Z,14.25
2023-03-18T23:45:24.820Z,13.63
2023-03-18T23:47:52.675Z,15.77
2023-03-18T23:50:20.903Z,18.85
2023-03-18T23:52:48.946Z,18.63
2023-03-18T23:55:33.062Z,20.15
2023-03-18T23:58:06.270Z,17.05
